createdAt,value
2019-04-10T00:02:19.652Z,81.78
2019-04-10T00:04:49.459Z,81.01
2019-04-10T00:07:19.834Z,81.64
2019-04-10T00:09:49.573Z,82.15
2019-04-10T00:12:18.639Z,81.66
2019-04-10T00:14:48.378Z,82.69
2019-04-10T00:17:17.343Z,82.53
2019-04-10T00:19:46.200Z,81.83
2019-04-10T00:22:15.059Z,81.51
2019-04-10T00:24:44.273Z,81.70
2019-04-10T00:27:14.516Z,81.31
2019-04-10T00:29:44.674Z,82.06
2019-04-10T00:32:14.019Z,82.14
2019-04-10T00:34:42.994Z,81.49
2019-04-10T00:37:22.032Z,81.83
2019-04-10T00:39:42.654Z,81.28
2019-04-10T00:42:11.294Z,81.66
2019-04-10T00:44:39.990Z,82.43
2019-04-10T00:47:08.926Z,83.67
2019-04-10T00:49:37.840Z,85.41
2019-04-10T00:52:07.930Z,86.17
2019-04-10T00:54:37.229Z,87.30
2019-04-10T00:57:07.306Z,87.59
2019-04-10T00:59:36.601Z,88.22
2019-04-10T01:02:05.704Z,88.29
2019-04-10T01:04:34.582Z,88.35
2019-04-10T01:07:04.321Z,88.46
2019-04-10T01:09:33.342Z,88.33
2019-04-10T01:12:02.202Z,88.40
2019-04-10T01:14:31.792Z,88.40
2019-04-10T01:17:02.046Z,88.16
2019-04-10T01:19:32.156Z,88.23
2019-04-10T01:22:01.187Z,88.10
2019-04-10T01:24:30.070Z,88.09
2019-04-10T01:26:59.314Z,87.83
2019-04-10T01:29:29.289Z,87.67
2019-04-10T01:31:59.454Z,87.39
2019-04-10T01:34:29.483Z,87.40
2019-04-10T01:36:58.551Z,87.53
2019-04-10T01:39:30.480Z,87.56
2019-04-10T01:42:00.585Z,87.53
2019-04-10T01:44:30.849Z,87.45
2019-04-10T01:46:59.660Z,87.45
2019-04-10T01:49:29.444Z,87.54
2019-04-10T01:51:59.489Z,87.34
2019-04-10T01:54:28.760Z,87.24
2019-04-10T01:56:57.806Z,87.43
2019-04-10T01:59:28.304Z,87.60
2019-04-10T02:02:03.094Z,87.88
2019-04-10T02:04:33.135Z,87.49
2019-04-10T02:07:02.210Z,87.76
2019-04-10T02:09:31.762Z,88.02
2019-04-10T02:12:00.679Z,88.11
2019-04-10T02:14:30.033Z,87.85
2019-04-10T02:16:59.096Z,87.91
2019-04-10T02:19:28.453Z,88.25
2019-04-10T02:21:58.220Z,88.41
2019-04-10T02:24:27.310Z,88.27
2019-04-10T02:26:56.281Z,88.44
2019-04-10T02:29:25.962Z,88.42
2019-04-10T02:31:57.248Z,88.30
2019-04-10T02:34:26.156Z,88.43
2019-04-10T02:36:55.349Z,88.44
2019-04-10T02:39:32.014Z,88.30
2019-04-10T02:41:56.169Z,88.51
2019-04-10T02:44:26.711Z,88.87
2019-04-10T02:46:57.950Z,88.36
2019-04-10T02:49:27.977Z,88.46
2019-04-10T02:51:57.090Z,88.69
2019-04-10T02:54:27.092Z,88.92
2019-04-10T02:56:56.865Z,89.94
2019-04-10T02:59:26.980Z,90.33
2019-04-10T03:01:57.862Z,90.15
2019-04-10T03:04:26.752Z,90.45
2019-04-10T03:06:55.780Z,90.40
2019-04-10T03:09:37.054Z,90.38
2019-04-10T03:11:57.281Z,90.50
2019-04-10T03:14:26.595Z,90.41
2019-04-10T03:16:55.852Z,90.40
2019-04-10T03:19:25.415Z,90.29
2019-04-10T03:21:55.475Z,89.52
2019-04-10T03:24:25.266Z,88.73
2019-04-10T03:26:54.879Z,88.34
2019-04-10T03:29:24.116Z,89.13
2019-04-10T03:31:54.701Z,89.50
2019-04-10T03:34:28.493Z,89.75
2019-04-10T03:36:56.143Z,90.13
2019-04-10T03:39:25.829Z,90.20
2019-04-10T03:41:54.736Z,90.41
2019-04-10T03:44:24.984Z,90.52
2019-04-10T03:46:55.198Z,90.56
2019-04-10T03:49:25.538Z,90.48
2019-04-10T03:51:54.736Z,90.48
2019-04-10T03:54:23.941Z,90.30
2019-04-10T03:56:54.039Z,90.03
2019-04-10T03:59:22.919Z,89.37
2019-04-10T04:01:51.836Z,89.14
2019-04-10T04:04:21.618Z,88.40
2019-04-10T04:06:50.401Z,87.76
2019-04-10T04:09:19.631Z,86.92
2019-04-10T04:11:48.642Z,86.52
2019-04-10T04:14:17.536Z,86.40
2019-04-10T04:16:47.049Z,86.41
2019-04-10T04:19:16.188Z,86.33
2019-04-10T04:21:45.603Z,86.92
2019-04-10T04:24:15.569Z,87.02
2019-04-10T04:26:44.669Z,87.07
2019-04-10T04:29:14.384Z,86.92
2019-04-10T04:31:44.070Z,87.59
2019-04-10T04:34:12.852Z,85.89
2019-04-10T04:36:41.722Z,85.84
2019-04-10T04:39:19.863Z,83.45
2019-04-10T04:41:42.213Z,84.09
2019-04-10T04:44:12.365Z,84.94
2019-04-10T04:46:41.317Z,85.54
2019-04-10T04:49:10.185Z,86.31
2019-04-10T04:51:39.304Z,86.50
2019-04-10T04:54:08.729Z,86.90
2019-04-10T04:56:37.690Z,87.34
2019-04-10T04:59:06.584Z,87.60
2019-04-10T05:01:36.005Z,87.31
2019-04-10T05:04:05.134Z,87.42
2019-04-10T05:06:34.996Z,86.94
2019-04-10T05:09:05.199Z,86.50
2019-04-10T05:11:34.402Z,86.68
2019-04-10T05:14:03.558Z,86.12
2019-04-10T05:16:32.974Z,84.93
2019-04-10T05:19:02.026Z,85.67
2019-04-10T05:21:31.075Z,85.78
2019-04-10T05:24:00.227Z,85.50
2019-04-10T05:26:29.355Z,86.44
2019-04-10T05:28:58.791Z,87.39
2019-04-10T05:31:28.014Z,88.56
2019-04-10T05:33:57.455Z,89.11
2019-04-10T05:36:26.534Z,88.97
2019-04-10T05:38:55.180Z,88.99
2019-04-10T05:41:25.954Z,88.78
2019-04-10T05:43:55.108Z,88.43
2019-04-10T05:46:24.988Z,88.12
2019-04-10T05:48:53.775Z,87.92
2019-04-10T05:51:23.339Z,87.47
2019-04-10T05:53:54.220Z,87.10
2019-04-10T05:56:23.335Z,87.33
2019-04-10T05:58:52.118Z,86.99
2019-04-10T06:01:30.585Z,87.09
2019-04-10T06:03:52.493Z,86.57
2019-04-10T06:06:22.233Z,85.77
2019-04-10T06:08:51.255Z,85.11
2019-04-10T06:11:20.604Z,85.35
2019-04-10T06:13:49.190Z,84.50
2019-04-10T06:16:19.399Z,84.23
2019-04-10T06:18:48.871Z,82.61
2019-04-10T06:21:18.775Z,82.42
2019-04-10T06:23:47.689Z,82.03
2019-04-10T06:26:16.991Z,81.40
2019-04-10T06:28:46.598Z,80.69
2019-04-10T06:31:16.543Z,80.22
2019-04-10T06:33:46.435Z,79.50
2019-04-10T06:36:15.561Z,78.50
2019-04-10T06:38:45.393Z,76.52
2019-04-10T06:41:16.202Z,76.04
2019-04-10T06:43:45.404Z,74.92
2019-04-10T06:46:14.598Z,74.93
2019-04-10T06:48:44.554Z,72.70
2019-04-10T06:51:13.897Z,73.28
2019-04-10T06:53:42.998Z,71.95
2019-04-10T06:56:11.628Z,70.70
2019-04-10T06:58:41.051Z,69.41
2019-04-10T07:01:10.475Z,68.07
2019-04-10T07:03:51.907Z,68.07
2019-04-10T07:06:17.201Z,67.82
2019-04-10T07:08:48.874Z,67.50
2019-04-10T07:11:18.618Z,66.13
2019-04-10T07:13:47.580Z,63.90
2019-04-10T07:16:16.288Z,62.76
2019-04-10T07:18:47.753Z,63.71
2019-04-10T07:21:16.692Z,61.26
2019-04-10T07:23:46.867Z,61.52
2019-04-10T07:26:25.583Z,61.25
2019-04-10T07:28:47.867Z,61.25
2019-04-10T07:31:17.355Z,60.56
2019-04-10T07:33:50.077Z,58.86
2019-04-10T07:36:16.931Z,60.22
2019-04-10T07:38:46.845Z,60.22
2019-04-10T07:41:21.049Z,58.18
2019-04-10T07:43:46.790Z,57.95
2019-04-10T07:46:17.106Z,57.48
2019-04-10T07:48:46.326Z,56.39
2019-04-10T07:51:15.248Z,56.92
2019-04-10T07:53:44.115Z,56.53
2019-04-10T07:56:16.377Z,55.01
2019-04-10T07:58:43.979Z,55.03
2019-04-10T08:01:13.862Z,55.23
2019-04-10T08:03:43.855Z,54.42
2019-04-10T08:06:13.139Z,53.30
2019-04-10T08:08:42.622Z,52.29
2019-04-10T08:11:11.447Z,50.66
2019-04-10T08:13:40.751Z,49.73
2019-04-10T08:16:10.542Z,49.92
2019-04-10T08:18:39.501Z,49.49
2019-04-10T08:21:08.159Z,48.15
2019-04-10T08:23:37.974Z,46.53
2019-04-10T08:26:06.626Z,46.07
2019-04-10T08:28:35.256Z,45.49
2019-04-10T08:31:04.464Z,45.59
2019-04-10T08:33:35.066Z,43.52
2019-04-10T08:36:05.324Z,43.70
2019-04-10T08:38:34.658Z,42.69
2019-04-10T08:41:03.348Z,42.90
2019-04-10T08:43:32.410Z,43.52
2019-04-10T08:46:02.003Z,44.21
2019-04-10T08:48:33.085Z,44.82
2019-04-10T08:51:03.124Z,44.03
2019-04-10T08:53:32.408Z,43.22
2019-04-10T08:56:02.350Z,43.41
2019-04-10T08:58:32.787Z,43.41
2019-04-10T09:01:02.250Z,42.46
2019-04-10T09:03:31.633Z,42.46
2019-04-10T09:06:00.982Z,43.55
2019-04-10T09:08:29.991Z,43.34
2019-04-10T09:10:58.852Z,42.38
2019-04-10T09:13:28.487Z,42.00
2019-04-10T09:15:58.382Z,39.24
2019-04-10T09:18:27.527Z,39.24
2019-04-10T09:20:57.303Z,40.19
2019-04-10T09:23:37.361Z,40.01
2019-04-10T09:25:57.696Z,38.60
2019-04-10T09:28:26.586Z,38.43
2019-04-10T09:30:55.856Z,36.49
2019-04-10T09:33:28.263Z,36.19
2019-04-10T09:35:55.730Z,35.55
2019-04-10T09:38:24.389Z,33.06
2019-04-10T09:40:53.317Z,33.39
2019-04-10T09:43:23.138Z,32.98
2019-04-10T09:45:52.073Z,31.88
2019-04-10T09:48:20.690Z,30.65
2019-04-10T09:50:50.280Z,30.40
2019-04-10T09:53:19.126Z,30.66
2019-04-10T09:55:47.702Z,34.90
2019-04-10T09:58:17.571Z,41.93
2019-04-10T10:00:48.205Z,44.15
2019-04-10T10:03:18.134Z,47.00
2019-04-10T10:05:46.833Z,49.71
2019-04-10T10:08:16.201Z,49.10
2019-04-10T10:10:45.527Z,48.49
2019-04-10T10:13:15.058Z,46.00
2019-04-10T10:15:45.208Z,49.51
2019-04-10T10:18:14.104Z,50.27
2019-04-10T10:20:43.992Z,52.35
2019-04-10T10:23:13.755Z,52.17
2019-04-10T10:25:43.663Z,52.61
2019-04-10T10:28:13.206Z,52.00
2019-04-10T10:30:42.232Z,52.20
2019-04-10T10:33:11.235Z,53.08
2019-04-10T10:35:41.097Z,52.14
2019-04-10T10:38:11.204Z,53.81
2019-04-10T10:40:41.454Z,53.90
2019-04-10T10:43:11.993Z,55.54
2019-04-10T10:45:41.351Z,55.05
2019-04-10T10:48:10.220Z,55.00
2019-04-10T10:50:39.501Z,52.24
2019-04-10T10:53:08.587Z,52.24
2019-04-10T10:55:38.016Z,52.26
2019-04-10T10:58:07.947Z,52.98
2019-04-10T11:00:36.798Z,52.83
2019-04-10T11:03:05.858Z,49.63
2019-04-10T11:05:35.092Z,49.17
2019-04-10T11:08:05.371Z,48.55
2019-04-10T11:10:34.353Z,48.23
2019-04-10T11:13:03.249Z,48.34
2019-04-10T11:15:32.099Z,49.72
2019-04-10T11:18:02.065Z,50.13
2019-04-10T11:20:32.068Z,50.80
2019-04-10T11:23:01.773Z,49.30
2019-04-10T11:25:32.447Z,46.48
2019-04-10T11:28:01.963Z,47.76
2019-04-10T11:30:32.384Z,47.58
2019-04-10T11:33:02.517Z,49.25
2019-04-10T11:35:31.966Z,50.67
2019-04-10T11:38:02.955Z,50.41
2019-04-10T11:40:33.796Z,49.79
2019-04-10T11:43:04.756Z,50.26
2019-04-10T11:45:41.312Z,50.60
2019-04-10T11:48:03.717Z,51.04
2019-04-10T11:50:34.588Z,50.54
2019-04-10T11:53:04.400Z,50.85
2019-04-10T11:55:43.078Z,51.21
2019-04-10T11:58:05.570Z,50.91
2019-04-10T12:00:47.492Z,49.80
2019-04-10T12:03:10.420Z,49.28
2019-04-10T12:05:41.554Z,49.71
2019-04-10T12:13:12.457Z,48.72
2019-04-10T12:15:43.034Z,47.83
2019-04-10T12:18:12.168Z,46.68
2019-04-10T12:20:41.194Z,47.06
2019-04-10T12:23:10.502Z,47.46
2019-04-10T12:25:39.869Z,49.86
2019-04-10T12:28:09.516Z,50.17
2019-04-10T12:30:39.513Z,50.83
2019-04-10T12:33:09.459Z,52.13
2019-04-10T12:35:40.314Z,50.71
2019-04-10T12:38:10.774Z,50.06
2019-04-10T12:40:40.519Z,49.35
2019-04-10T12:43:10.489Z,47.67
2019-04-10T12:45:40.298Z,46.02
2019-04-10T12:48:10.373Z,43.81
2019-04-10T12:50:39.379Z,42.35
2019-04-10T12:53:09.348Z,42.97
2019-04-10T12:55:38.888Z,46.59
2019-04-10T12:58:15.285Z,49.01
2019-04-10T13:00:41.054Z,47.22
2019-04-10T13:03:09.834Z,46.00
2019-04-10T13:05:38.891Z,45.80
2019-04-10T13:08:17.832Z,45.83
2019-04-10T13:10:39.931Z,46.83
2019-04-10T13:13:09.500Z,46.16
2019-04-10T13:15:39.319Z,44.57
2019-04-10T13:18:08.161Z,42.81
2019-04-10T13:20:37.836Z,42.95
2019-04-10T13:23:06.963Z,44.03
2019-04-10T13:25:36.635Z,45.38
2019-04-10T13:28:05.592Z,46.54
2019-04-10T13:30:46.475Z,46.67
2019-04-10T13:33:06.655Z,47.87
2019-04-10T13:35:35.983Z,47.49
2019-04-10T13:38:06.520Z,48.49
2019-04-10T13:40:35.313Z,48.25
2019-04-10T13:43:05.354Z,47.43
2019-04-10T13:45:35.337Z,47.64
2019-04-10T13:48:04.479Z,46.39
2019-04-10T13:50:33.351Z,46.03
2019-04-10T13:53:01.990Z,46.86
2019-04-10T13:55:30.595Z,46.65
2019-04-10T13:58:00.071Z,47.05
2019-04-10T14:00:41.029Z,46.91
2019-04-10T14:03:10.261Z,47.15
2019-04-10T14:05:39.339Z,47.29
2019-04-10T14:08:08.475Z,47.34
2019-04-10T14:10:40.825Z,47.61
2019-04-10T14:13:08.069Z,47.30
2019-04-10T14:15:37.036Z,47.70
2019-04-10T14:18:06.197Z,47.09
2019-04-10T14:20:35.426Z,46.74
2019-04-10T14:23:20.110Z,45.96
2019-04-10T14:26:04.445Z,44.86
2019-04-10T14:28:33.438Z,44.97
2019-04-10T14:31:07.655Z,44.90
2019-04-10T14:33:36.460Z,44.69
2019-04-10T14:36:05.609Z,45.35
2019-04-10T14:38:34.934Z,45.94
2019-04-10T14:41:03.593Z,46.88
2019-04-10T14:43:32.808Z,47.14
2019-04-10T14:46:02.675Z,47.76
2019-04-10T14:48:32.121Z,47.86
2019-04-10T14:51:01.471Z,48.51
2019-04-10T14:53:31.138Z,48.13
2019-04-10T14:56:00.047Z,48.93
2019-04-10T14:58:30.641Z,48.46
2019-04-10T15:00:59.878Z,48.66
2019-04-10T15:03:28.649Z,48.66
2019-04-10T15:05:59.830Z,48.77
2019-04-10T15:08:28.445Z,49.04
2019-04-10T15:10:58.269Z,48.81
2019-04-10T15:13:27.355Z,48.01
2019-04-10T15:15:56.716Z,48.01
2019-04-10T15:18:25.485Z,47.10
2019-04-10T15:20:54.383Z,47.37
2019-04-10T15:23:23.272Z,47.50
2019-04-10T15:26:28.227Z,46.98
2019-04-10T15:28:58.264Z,48.22
2019-04-10T15:31:28.801Z,48.40
2019-04-10T15:33:58.153Z,49.61
2019-04-10T15:36:27.022Z,49.61
2019-04-10T15:38:55.902Z,49.50
2019-04-10T15:41:25.335Z,49.68
2019-04-10T15:43:54.449Z,49.28
2019-04-10T15:46:24.689Z,48.40
2019-04-10T15:48:53.623Z,47.41
2019-04-10T15:51:22.454Z,47.59
2019-04-10T15:53:51.462Z,47.99
2019-04-10T15:56:20.497Z,47.43
2019-04-10T15:58:49.939Z,47.73
2019-04-10T16:01:21.573Z,46.82
2019-04-10T16:03:50.686Z,45.12
2019-04-10T16:06:20.890Z,46.33
2019-04-10T16:08:50.382Z,47.13
2019-04-10T16:11:36.216Z,46.97
2019-04-10T16:14:16.865Z,45.42
2019-04-10T16:16:56.913Z,46.09
2019-04-10T16:19:54.357Z,44.69
2019-04-10T16:22:27.684Z,44.48
2019-04-10T16:24:58.028Z,43.72
2019-04-10T16:27:26.657Z,42.79
2019-04-10T16:29:56.537Z,42.41
2019-04-10T16:32:26.632Z,41.31
2019-04-10T16:34:56.711Z,40.59
2019-04-10T16:37:26.354Z,39.56
2019-04-10T16:40:00.394Z,42.54
2019-04-10T16:42:26.528Z,43.24
2019-04-10T16:44:55.630Z,44.51
2019-04-10T16:47:24.463Z,44.85
2019-04-10T16:49:53.168Z,45.23
2019-04-10T16:52:23.090Z,45.30
2019-04-10T16:54:52.165Z,46.11
2019-04-10T16:57:20.791Z,46.04
2019-04-10T16:59:50.675Z,46.46
2019-04-10T17:02:20.036Z,47.30
2019-04-10T17:04:50.126Z,47.78
2019-04-10T17:07:19.165Z,48.32
2019-04-10T17:09:47.776Z,49.01
2019-04-10T17:12:17.811Z,48.65
2019-04-10T17:14:47.808Z,49.50
2019-04-10T17:17:17.958Z,50.40
2019-04-10T17:19:53.649Z,51.10
2019-04-10T17:22:31.078Z,51.45
2019-04-10T17:24:49.443Z,51.82
2019-04-10T17:27:19.466Z,52.04
2019-04-10T17:29:49.430Z,52.22
2019-04-10T17:32:19.348Z,52.80
2019-04-10T17:34:49.297Z,53.19
2019-04-10T17:37:18.176Z,53.55
2019-04-10T17:39:47.352Z,53.83
2019-04-10T17:42:16.777Z,53.67
2019-04-10T17:44:45.685Z,54.08
2019-04-10T17:47:16.502Z,54.24
2019-04-10T17:49:45.987Z,54.56
2019-04-10T17:52:14.862Z,54.63
2019-04-10T17:54:43.504Z,54.88
2019-04-10T17:57:12.784Z,55.01
2019-04-10T17:59:42.813Z,55.32
2019-04-10T18:02:13.741Z,55.34
2019-04-10T18:04:42.781Z,55.85
2019-04-10T18:07:12.128Z,55.69
2019-04-10T18:09:41.091Z,55.66
2019-04-10T18:12:10.655Z,55.72
2019-04-10T18:14:40.961Z,56.65
2019-04-10T18:17:10.926Z,56.65
2019-04-10T18:19:39.948Z,56.93
2019-04-10T18:22:10.023Z,57.60
2019-04-10T18:24:40.158Z,57.50
2019-04-10T18:27:09.136Z,56.67
2019-04-10T18:29:39.229Z,56.93
2019-04-10T18:32:09.611Z,56.71
2019-04-10T18:34:38.369Z,56.71
2019-04-10T18:37:09.300Z,55.95
2019-04-10T18:39:38.594Z,55.95
2019-04-10T18:42:07.801Z,55.40
2019-04-10T18:44:38.078Z,55.40
2019-04-10T18:47:06.932Z,55.68
2019-04-10T18:49:35.796Z,55.50
2019-04-10T18:52:05.380Z,55.50
2019-04-10T18:54:35.942Z,55.74
2019-04-10T18:57:05.942Z,55.74
2019-04-10T18:59:46.997Z,56.02
2019-04-10T19:02:30.387Z,56.32
2019-04-10T19:05:30.597Z,56.32
2019-04-10T19:08:02.896Z,56.75
2019-04-10T19:10:32.631Z,56.45
2019-04-10T19:13:01.597Z,57.09
2019-04-10T19:15:31.109Z,56.77
2019-04-10T19:17:59.851Z,57.71
2019-04-10T19:20:29.091Z,57.74
2019-04-10T19:22:59.177Z,57.74
2019-04-10T19:25:28.723Z,57.81
2019-04-10T19:27:58.144Z,57.99
2019-04-10T19:30:37.302Z,58.10
2019-04-10T19:33:06.233Z,58.10
2019-04-10T19:35:35.151Z,58.92
2019-04-10T19:38:03.770Z,58.96
2019-04-10T19:40:32.521Z,59.57
2019-04-10T19:43:01.981Z,59.57
2019-04-10T19:45:32.191Z,60.28
2019-04-10T19:48:01.149Z,60.54
2019-04-10T19:50:30.231Z,60.76
2019-04-10T19:52:59.097Z,60.94
2019-04-10T19:55:27.726Z,61.19
2019-04-10T19:57:57.471Z,61.41
2019-04-10T20:00:30.970Z,61.64
2019-04-10T20:02:59.932Z,61.64
2019-04-10T20:05:29.594Z,62.66
2019-04-10T20:07:59.576Z,62.60
2019-04-10T20:10:29.695Z,62.22
2019-04-10T20:12:59.384Z,62.16
2019-04-10T20:15:28.813Z,62.29
2019-04-10T20:17:57.812Z,62.47
2019-04-10T20:20:27.182Z,62.55
2019-04-10T20:22:58.088Z,62.79
2019-04-10T20:25:27.725Z,63.11
2019-04-10T20:27:56.996Z,63.20
2019-04-10T20:30:27.999Z,63.18
2019-04-10T20:32:56.684Z,63.23
2019-04-10T20:35:26.574Z,62.85
2019-04-10T20:37:55.508Z,62.82
2019-04-10T20:40:25.539Z,63.28
2019-04-10T20:42:54.596Z,63.16
2019-04-10T20:45:25.304Z,63.46
2019-04-10T20:47:54.628Z,64.28
2019-04-10T20:50:23.880Z,64.00
2019-04-10T20:52:53.692Z,64.06
2019-04-10T20:55:22.396Z,64.91
2019-04-10T20:57:52.099Z,64.32
2019-04-10T21:00:38.538Z,64.49
2019-04-10T21:03:07.343Z,64.68
2019-04-10T21:05:36.242Z,64.87
2019-04-10T21:08:05.607Z,65.55
2019-04-10T21:10:34.318Z,66.46
2019-04-10T21:13:03.009Z,67.44
2019-04-10T21:15:33.336Z,67.56
2019-04-10T21:18:02.723Z,67.97
2019-04-10T21:20:32.426Z,68.21
2019-04-10T21:23:01.430Z,69.15
2019-04-10T21:25:30.928Z,69.14
2019-04-10T21:28:00.358Z,69.54
2019-04-10T21:30:48.783Z,69.36
2019-04-10T21:33:30.218Z,70.13
2019-04-10T21:35:59.677Z,70.21
2019-04-10T21:38:28.434Z,69.99
2019-04-10T21:40:57.440Z,70.29
2019-04-10T21:43:26.508Z,69.86
2019-04-10T21:45:55.861Z,70.17
2019-04-10T21:48:24.656Z,70.68
2019-04-10T21:50:53.830Z,70.44
2019-04-10T21:53:24.038Z,70.61
2019-04-10T21:55:53.682Z,71.04
2019-04-10T21:58:22.661Z,70.53
2019-04-10T22:01:01.392Z,70.46
2019-04-10T22:03:31.695Z,70.66
2019-04-10T22:06:19.924Z,70.53
2019-04-10T22:08:56.177Z,70.71
2019-04-10T22:11:25.644Z,71.86
2019-04-10T22:13:55.076Z,71.74
2019-04-10T22:16:26.236Z,72.00
2019-04-10T22:18:56.065Z,71.69
2019-04-10T22:21:25.065Z,72.18
2019-04-10T22:23:54.003Z,72.97
2019-04-10T22:26:22.737Z,72.55
2019-04-10T22:28:52.767Z,73.11
2019-04-10T22:31:21.918Z,72.83
2019-04-10T22:33:50.818Z,74.29
2019-04-10T22:36:20.755Z,73.55
2019-04-10T22:38:49.712Z,72.89
2019-04-10T22:41:27.126Z,73.65
2019-04-10T22:43:49.159Z,73.70
2019-04-10T22:46:17.833Z,74.01
2019-04-10T22:48:46.447Z,74.36
2019-04-10T22:51:15.126Z,74.77
2019-04-10T22:53:43.793Z,74.85
2019-04-10T22:56:13.006Z,74.63
2019-04-10T22:58:43.112Z,74.22
2019-04-10T23:01:13.111Z,76.21
2019-04-10T23:03:43.197Z,76.50
2019-04-10T23:06:13.268Z,76.24
2019-04-10T23:08:42.071Z,76.33
2019-04-10T23:11:10.938Z,77.01
2019-04-10T23:13:40.455Z,77.26
2019-04-10T23:16:09.868Z,77.27
2019-04-10T23:18:39.300Z,77.95
2019-04-10T23:21:08.623Z,78.12
2019-04-10T23:23:37.494Z,78.35
2019-04-10T23:26:06.941Z,78.37
2019-04-10T23:28:37.722Z,78.31
2019-04-10T23:31:07.590Z,78.63
2019-04-10T23:33:36.772Z,78.82
2019-04-10T23:36:07.675Z,79.29
2019-04-10T23:38:36.835Z,79.12
2019-04-10T23:41:05.835Z,78.89
2019-04-10T23:43:35.609Z,78.70
2019-04-10T23:46:04.593Z,78.71
2019-04-10T23:48:34.951Z,79.07
2019-04-10T23:51:04.960Z,78.82
2019-04-10T23:53:33.966Z,78.83
2019-04-10T23:56:02.583Z,79.00
2019-04-10T23:58:31.867Z,78.87
